sensor_id;sensor_type;location;lat;lon;timestamp;temperature;humidity
21861;DHT22;11095;48.066;8.540;2024-01-16T00:01:37;-6.10;99.90
21861;DHT22;11095;48.066;8.540;2024-01-16T00:04:03;-6.10;99.90
21861;DHT22;11095;48.066;8.540;2024-01-16T00:06:28;-6.00;99.90
21861;DHT22;11095;48.066;8.540;2024-01-16T00:08:54;-6.00;99.90
21861;DHT22;11095;48.066;8.540;2024-01-16T00:11:20;-6.20;99.90
21861;DHT22;11095;48.066;8.540;2024-01-16T00:13:45;-6.20;99.90
21861;DHT22;11095;48.066;8.540;2024-01-16T00:16:11;-6.30;99.90
21861;DHT22;11095;48.066;8.540;2024-01-16T00:18:36;-6.40;99.90
21861;DHT22;11095;48.066;8.540;2024-01-16T00:21:02;-6.50;99.90
21861;DHT22;11095;48.066;8.540;2024-01-16T00:23:28;-6.60;99.90
21861;DHT22;11095;48.066;8.540;2024-01-16T00:25:53;-6.70;99.90
21861;DHT22;11095;48.066;8.540;2024-01-16T00:28:19;-6.80;99.90
21861;DHT22;11095;48.066;8.540;2024-01-16T00:30:45;-6.80;99.90
21861;DHT22;11095;48.066;8.540;2024-01-16T00:33:10;-6.90;99.90
21861;DHT22;11095;48.066;8.540;2024-01-16T00:35:37;-6.90;99.90
21861;DHT22;11095;48.066;8.540;2024-01-16T00:38:03;-6.90;99.90
21861;DHT22;11095;48.066;8.540;2024-01-16T00:40:29;-6.90;99.90
21861;DHT22;11095;48.066;8.540;2024-01-16T00:42:54;-7.00;99.90
21861;DHT22;11095;48.066;8.540;2024-01-16T00:45:20;-7.10;99.90
21861;DHT22;11095;48.066;8.540;2024-01-16T00:47:46;-7.00;99.90
21861;DHT22;11095;48.066;8.540;2024-01-16T00:50:12;-7.10;99.90
21861;DHT22;11095;48.066;8.540;2024-01-16T00:52:38;-7.10;99.90
21861;DHT22;11095;48.066;8.540;2024-01-16T00:55:04;-7.10;99.90
21861;DHT22;11095;48.066;8.540;2024-01-16T00:57:30;-7.10;99.90
21861;DHT22;11095;48.066;8.540;2024-01-16T00:59:55;-7.10;99.90
21861;DHT22;11095;48.066;8.540;2024-01-16T01:02:21;-7.10;99.90
21861;DHT22;11095;48.066;8.540;2024-01-16T01:04:47;-7.20;99.90
21861;DHT22;11095;48.066;8.540;2024-01-16T01:07:14;-7.20;99.90
21861;DHT22;11095;48.066;8.540;2024-01-16T01:09:40;-7.20;99.90
21861;DHT22;11095;48.066;8.540;2024-01-16T01:12:06;-7.30;99.90
21861;DHT22;11095;48.066;8.540;2024-01-16T01:14:31;-7.30;99.90
21861;DHT22;11095;48.066;8.540;2024-01-16T01:16:57;-7.30;99.90
21861;DHT22;11095;48.066;8.540;2024-01-16T01:19:23;-7.40;99.90
21861;DHT22;11095;48.066;8.540;2024-01-16T01:21:48;-7.40;99.90
21861;DHT22;11095;48.066;8.540;2024-01-16T01:24:15;-7.40;99.90
21861;DHT22;11095;48.066;8.540;2024-01-16T01:26:43;-7.50;99.90
21861;DHT22;11095;48.066;8.540;2024-01-16T01:29:08;-7.50;99.90
21861;DHT22;11095;48.066;8.540;2024-01-16T01:31:34;-7.50;99.90
21861;DHT22;11095;48.066;8.540;2024-01-16T01:33:59;-7.60;99.90
21861;DHT22;11095;48.066;8.540;2024-01-16T01:36:25;-7.60;99.90
21861;DHT22;11095;48.066;8.540;2024-01-16T01:38:50;-7.60;99.90
21861;DHT22;11095;48.066;8.540;2024-01-16T01:41:17;-7.60;99.90
21861;DHT22;11095;48.066;8.540;2024-01-16T01:43:42;-7.60;99.90
21861;DHT22;11095;48.066;8.540;2024-01-16T01:46:18;-7.50;99.90
21861;DHT22;11095;48.066;8.540;2024-01-16T01:48:46;-7.60;99.90
21861;DHT22;11095;48.066;8.540;2024-01-16T01:51:12;-7.60;99.90
21861;DHT22;11095;48.066;8.540;2024-01-16T01:53:40;-7.60;99.90
21861;DHT22;11095;48.066;8.540;2024-01-16T01:56:25;-7.70;99.90
21861;DHT22;11095;48.066;8.540;2024-01-16T01:58:54;-7.70;99.90
21861;DHT22;11095;48.066;8.540;2024-01-16T02:01:22;-7.70;99.90
21861;DHT22;11095;48.066;8.540;2024-01-16T02:03:49;-7.80;99.90
21861;DHT22;11095;48.066;8.540;2024-01-16T02:06:15;-7.70;99.90
21861;DHT22;11095;48.066;8.540;2024-01-16T02:08:42;-7.80;99.90
21861;DHT22;11095;48.066;8.540;2024-01-16T02:11:08;-7.80;99.90
21861;DHT22;11095;48.066;8.540;2024-01-16T02:13:35;-7.90;99.90
21861;DHT22;11095;48.066;8.540;2024-01-16T02:16:01;-7.90;99.90
21861;DHT22;11095;48.066;8.540;2024-01-16T02:18:27;-7.90;99.90
21861;DHT22;11095;48.066;8.540;2024-01-16T02:20:53;-8.00;99.90
21861;DHT22;11095;48.066;8.540;2024-01-16T02:23:26;-8.00;99.90
21861;DHT22;11095;48.066;8.540;2024-01-16T02:25:53;-8.00;99.90
21861;DHT22;11095;48.066;8.540;2024-01-16T02:28:19;-8.00;99.90
21861;DHT22;11095;48.066;8.540;2024-01-16T02:30:45;-8.00;99.90
21861;DHT22;11095;48.066;8.540;2024-01-16T02:33:10;-8.00;99.90
21861;DHT22;11095;48.066;8.540;2024-01-16T02:35:36;-8.00;99.90
21861;DHT22;11095;48.066;8.540;2024-01-16T02:38:01;-8.10;99.90
21861;DHT22;11095;48.066;8.540;2024-01-16T02:40:27;-8.10;99.90
21861;DHT22;11095;48.066;8.540;2024-01-16T02:42:52;-8.10;99.90
21861;DHT22;11095;48.066;8.540;2024-01-16T02:45:18;-8.10;99.90
21861;DHT22;11095;48.066;8.540;2024-01-16T02:47:43;-8.10;99.90
21861;DHT22;11095;48.066;8.540;2024-01-16T02:50:09;-8.10;99.90
21861;DHT22;11095;48.066;8.540;2024-01-16T02:52:35;-8.00;99.90
21861;DHT22;11095;48.066;8.540;2024-01-16T02:55:01;-8.00;99.90
21861;DHT22;11095;48.066;8.540;2024-01-16T02:57:26;-8.00;99.90
21861;DHT22;11095;48.066;8.540;2024-01-16T02:59:52;-8.10;99.90
21861;DHT22;11095;48.066;8.540;2024-01-16T03:02:18;-8.10;99.90
21861;DHT22;11095;48.066;8.540;2024-01-16T03:04:43;-8.10;99.90
21861;DHT22;11095;48.066;8.540;2024-01-16T03:07:09;-8.10;99.90
21861;DHT22;11095;48.066;8.540;2024-01-16T03:09:34;-8.10;99.90
21861;DHT22;11095;48.066;8.540;2024-01-16T03:12:00;-8.10;99.90
21861;DHT22;11095;48.066;8.540;2024-01-16T03:14:25;-8.10;99.90
21861;DHT22;11095;48.066;8.540;2024-01-16T03:16:51;-8.10;99.90
21861;DHT22;11095;48.066;8.540;2024-01-16T03:19:16;-8.20;99.90
21861;DHT22;11095;48.066;8.540;2024-01-16T03:21:42;-8.30;99.90
21861;DHT22;11095;48.066;8.540;2024-01-16T03:24:08;-8.30;99.90
21861;DHT22;11095;48.066;8.540;2024-01-16T03:26:36;-8.30;99.90
21861;DHT22;11095;48.066;8.540;2024-01-16T03:29:02;-8.40;99.90
21861;DHT22;11095;48.066;8.540;2024-01-16T03:31:28;-8.40;99.90
21861;DHT22;11095;48.066;8.540;2024-01-16T03:33:53;-8.50;99.90
21861;DHT22;11095;48.066;8.540;2024-01-16T03:36:19;-8.40;99.90
21861;DHT22;11095;48.066;8.540;2024-01-16T03:38:45;-8.40;99.90
21861;DHT22;11095;48.066;8.540;2024-01-16T03:41:11;-8.40;99.90
21861;DHT22;11095;48.066;8.540;2024-01-16T03:43:36;-8.40;99.90
21861;DHT22;11095;48.066;8.540;2024-01-16T03:46:02;-8.50;99.90
21861;DHT22;11095;48.066;8.540;2024-01-16T03:48:28;-8.50;99.90
21861;DHT22;11095;48.066;8.540;2024-01-16T03:50:54;-8.50;99.90
21861;DHT22;11095;48.066;8.540;2024-01-16T03:53:20;-8.60;99.90
21861;DHT22;11095;48.066;8.540;2024-01-16T03:55:47;-8.60;99.90
21861;DHT22;11095;48.066;8.540;2024-01-16T03:58:12;-8.60;99.90
21861;DHT22;11095;48.066;8.540;2024-01-16T04:00:38;-8.70;99.90
21861;DHT22;11095;48.066;8.540;2024-01-16T04:03:03;-8.70;99.90
21861;DHT22;11095;48.066;8.540;2024-01-16T04:05:29;-8.70;99.90
21861;DHT22;11095;48.066;8.540;2024-01-16T04:07:56;-8.80;99.90
21861;DHT22;11095;48.066;8.540;2024-01-16T04:10:22;-8.90;99.90
21861;DHT22;11095;48.066;8.540;2024-01-16T04:12:48;-9.00;99.90
21861;DHT22;11095;48.066;8.540;2024-01-16T04:15:13;-9.10;99.90
21861;DHT22;11095;48.066;8.540;2024-01-16T04:17:39;-9.10;99.90
21861;DHT22;11095;48.066;8.540;2024-01-16T04:20:05;-9.10;99.90
21861;DHT22;11095;48.066;8.540;2024-01-16T04:22:32;-9.10;99.90
21861;DHT22;11095;48.066;8.540;2024-01-16T04:24:58;-9.20;99.90
21861;DHT22;11095;48.066;8.540;2024-01-16T04:27:24;-9.20;99.90
21861;DHT22;11095;48.066;8.540;2024-01-16T04:29:51;-9.10;99.90
21861;DHT22;11095;48.066;8.540;2024-01-16T04:32:16;-9.20;99.90
21861;DHT22;11095;48.066;8.540;2024-01-16T04:34:42;-9.10;99.90
21861;DHT22;11095;48.066;8.540;2024-01-16T04:37:07;-9.20;99.90
21861;DHT22;11095;48.066;8.540;2024-01-16T04:39:33;-9.10;99.90
21861;DHT22;11095;48.066;8.540;2024-01-16T04:41:58;-9.10;99.90
21861;DHT22;11095;48.066;8.540;2024-01-16T04:44:24;-9.10;99.90
21861;DHT22;11095;48.066;8.540;2024-01-16T04:46:50;-9.20;99.90
21861;DHT22;11095;48.066;8.540;2024-01-16T04:49:15;-9.20;99.90
21861;DHT22;11095;48.066;8.540;2024-01-16T04:51:41;-9.10;99.90
21861;DHT22;11095;48.066;8.540;2024-01-16T04:54:07;-9.10;99.90
21861;DHT22;11095;48.066;8.540;2024-01-16T04:56:32;-9.10;99.90
21861;DHT22;11095;48.066;8.540;2024-01-16T04:58:58;-9.10;99.90
21861;DHT22;11095;48.066;8.540;2024-01-16T05:01:24;-9.10;99.90
21861;DHT22;11095;48.066;8.540;2024-01-16T05:03:50;-9.10;99.90
21861;DHT22;11095;48.066;8.540;2024-01-16T05:06:16;-9.10;99.90
21861;DHT22;11095;48.066;8.540;2024-01-16T05:08:42;-9.10;99.90
21861;DHT22;11095;48.066;8.540;2024-01-16T05:11:09;-9.10;99.90
21861;DHT22;11095;48.066;8.540;2024-01-16T05:13:34;-9.20;99.90
21861;DHT22;11095;48.066;8.540;2024-01-16T05:16:00;-9.20;99.90
21861;DHT22;11095;48.066;8.540;2024-01-16T05:18:26;-9.20;99.90
21861;DHT22;11095;48.066;8.540;2024-01-16T05:20:51;-9.20;99.90
21861;DHT22;11095;48.066;8.540;2024-01-16T05:23:17;-9.20;99.90
21861;DHT22;11095;48.066;8.540;2024-01-16T05:25:43;-9.20;99.90
21861;DHT22;11095;48.066;8.540;2024-01-16T05:28:09;-9.30;99.90
21861;DHT22;11095;48.066;8.540;2024-01-16T05:30:34;-9.30;99.90
21861;DHT22;11095;48.066;8.540;2024-01-16T05:33:00;-9.30;99.90
21861;DHT22;11095;48.066;8.540;2024-01-16T05:35:27;-9.40;99.90
21861;DHT22;11095;48.066;8.540;2024-01-16T05:37:53;-9.40;99.90
21861;DHT22;11095;48.066;8.540;2024-01-16T05:40:19;-9.40;99.90
21861;DHT22;11095;48.066;8.540;2024-01-16T05:42:45;-9.40;99.90
21861;DHT22;11095;48.066;8.540;2024-01-16T05:45:10;-9.30;99.90
21861;DHT22;11095;48.066;8.540;2024-01-16T05:47:36;-9.30;99.90
21861;DHT22;11095;48.066;8.540;2024-01-16T05:50:02;-9.30;99.90
21861;DHT22;11095;48.066;8.540;2024-01-16T05:52:27;-9.30;99.90
21861;DHT22;11095;48.066;8.540;2024-01-16T05:54:53;-9.30;99.90
21861;DHT22;11095;48.066;8.540;2024-01-16T05:57:22;-9.30;99.90
21861;DHT22;11095;48.066;8.540;2024-01-16T05:59:48;-9.20;99.90
21861;DHT22;11095;48.066;8.540;2024-01-16T06:02:14;-9.20;99.90
21861;DHT22;11095;48.066;8.540;2024-01-16T06:04:40;-9.20;99.90
21861;DHT22;11095;48.066;8.540;2024-01-16T06:07:05;-9.10;99.90
21861;DHT22;11095;48.066;8.540;2024-01-16T06:09:38;-9.10;99.90
21861;DHT22;11095;48.066;8.540;2024-01-16T06:12:05;-9.10;99.90
21861;DHT22;11095;48.066;8.540;2024-01-16T06:14:32;-9.10;99.90
21861;DHT22;11095;48.066;8.540;2024-01-16T06:16:58;-9.10;99.90
21861;DHT22;11095;48.066;8.540;2024-01-16T06:19:23;-9.10;99.90
21861;DHT22;11095;48.066;8.540;2024-01-16T06:21:49;-9.00;99.90
21861;DHT22;11095;48.066;8.540;2024-01-16T06:24:14;-9.00;99.90
21861;DHT22;11095;48.066;8.540;2024-01-16T06:26:40;-9.10;99.90
21861;DHT22;11095;48.066;8.540;2024-01-16T06:29:05;-9.10;99.90
21861;DHT22;11095;48.066;8.540;2024-01-16T06:31:31;-9.10;99.90
21861;DHT22;11095;48.066;8.540;2024-01-16T06:33:57;-9.20;99.90
21861;DHT22;11095;48.066;8.540;2024-01-16T06:36:22;-9.20;99.90
21861;DHT22;11095;48.066;8.540;2024-01-16T06:38:48;-9.20;99.90
21861;DHT22;11095;48.066;8.540;2024-01-16T06:41:13;-9.20;99.90
21861;DHT22;11095;48.066;8.540;2024-01-16T06:43:39;-9.20;99.90
21861;DHT22;11095;48.066;8.540;2024-01-16T06:46:04;-9.30;99.90
21861;DHT22;11095;48.066;8.540;2024-01-16T06:48:31;-9.30;99.90
21861;DHT22;11095;48.066;8.540;2024-01-16T06:50:56;-9.40;99.90
21861;DHT22;11095;48.066;8.540;2024-01-16T06:53:22;-9.50;99.90
21861;DHT22;11095;48.066;8.540;2024-01-16T06:55:48;-9.50;99.90
21861;DHT22;11095;48.066;8.540;2024-01-16T06:58:14;-9.60;99.90
21861;DHT22;11095;48.066;8.540;2024-01-16T07:00:40;-9.60;99.90
21861;DHT22;11095;48.066;8.540;2024-01-16T07:03:07;-9.50;99.90
21861;DHT22;11095;48.066;8.540;2024-01-16T07:05:32;-9.50;99.90
21861;DHT22;11095;48.066;8.540;2024-01-16T07:07:58;-9.40;99.90
21861;DHT22;11095;48.066;8.540;2024-01-16T07:10:24;-9.40;99.90
21861;DHT22;11095;48.066;8.540;2024-01-16T07:12:49;-9.40;99.90
21861;DHT22;11095;48.066;8.540;2024-01-16T07:15:17;-9.40;99.90
21861;DHT22;11095;48.066;8.540;2024-01-16T07:17:42;-9.40;99.90
21861;DHT22;11095;48.066;8.540;2024-01-16T07:20:08;-9.30;99.90
21861;DHT22;11095;48.066;8.540;2024-01-16T07:22:34;-9.30;99.90
21861;DHT22;11095;48.066;8.540;2024-01-16T07:25:00;-9.20;99.90
21861;DHT22;11095;48.066;8.540;2024-01-16T07:27:26;-9.10;99.90
21861;DHT22;11095;48.066;8.540;2024-01-16T07:29:51;-8.90;99.90
21861;DHT22;11095;48.066;8.540;2024-01-16T07:32:17;-8.30;99.90
21861;DHT22;11095;48.066;8.540;2024-01-16T07:34:42;-7.20;99.90
21861;DHT22;11095;48.066;8.540;2024-01-16T07:37:08;-6.00;99.90
21861;DHT22;11095;48.066;8.540;2024-01-16T07:39:34;-4.80;99.90
21861;DHT22;11095;48.066;8.540;2024-01-16T07:42:00;-3.90;99.90
21861;DHT22;11095;48.066;8.540;2024-01-16T07:44:25;-3.00;99.90
21861;DHT22;11095;48.066;8.540;2024-01-16T07:46:51;-2.10;99.90
21861;DHT22;11095;48.066;8.540;2024-01-16T07:49:17;-1.30;99.90
21861;DHT22;11095;48.066;8.540;2024-01-16T07:51:42;-0.80;99.90
21861;DHT22;11095;48.066;8.540;2024-01-16T07:54:09;-0.30;99.90
21861;DHT22;11095;48.066;8.540;2024-01-16T07:56:36;0.30;99.90
21861;DHT22;11095;48.066;8.540;2024-01-16T07:59:01;0.90;99.90
21861;DHT22;11095;48.066;8.540;2024-01-16T08:01:28;1.30;99.90
21861;DHT22;11095;48.066;8.540;2024-01-16T08:03:57;1.80;99.90
21861;DHT22;11095;48.066;8.540;2024-01-16T08:06:23;2.30;99.90
21861;DHT22;11095;48.066;8.540;2024-01-16T08:08:49;2.80;99.90
21861;DHT22;11095;48.066;8.540;2024-01-16T08:11:15;3.10;99.90
21861;DHT22;11095;48.066;8.540;2024-01-16T08:13:41;3.50;99.90
21861;DHT22;11095;48.066;8.540;2024-01-16T08:16:07;3.70;99.90
21861;DHT22;11095;48.066;8.540;2024-01-16T08:18:34;3.80;99.90
21861;DHT22;11095;48.066;8.540;2024-01-16T08:20:59;3.90;99.90
21861;DHT22;11095;48.066;8.540;2024-01-16T08:23:25;3.80;99.90
21861;DHT22;11095;48.066;8.540;2024-01-16T08:25:50;3.90;99.90
21861;DHT22;11095;48.066;8.540;2024-01-16T08:28:17;4.30;99.90
21861;DHT22;11095;48.066;8.540;2024-01-16T08:30:43;4.60;99.90
21861;DHT22;11095;48.066;8.540;2024-01-16T08:33:09;5.10;99.90
21861;DHT22;11095;48.066;8.540;2024-01-16T08:35:34;5.40;99.90
21861;DHT22;11095;48.066;8.540;2024-01-16T08:38:00;5.70;99.90
21861;DHT22;11095;48.066;8.540;2024-01-16T08:40:26;6.20;99.90
21861;DHT22;11095;48.066;8.540;2024-01-16T08:42:52;6.50;99.90
21861;DHT22;11095;48.066;8.540;2024-01-16T08:45:21;6.70;99.90
21861;DHT22;11095;48.066;8.540;2024-01-16T08:47:46;6.80;99.90
21861;DHT22;11095;48.066;8.540;2024-01-16T08:50:12;7.10;99.90
21861;DHT22;11095;48.066;8.540;2024-01-16T08:52:39;7.10;99.90
21861;DHT22;11095;48.066;8.540;2024-01-16T08:55:04;7.10;99.50
21861;DHT22;11095;48.066;8.540;2024-01-16T08:57:30;7.00;99.40
21861;DHT22;11095;48.066;8.540;2024-01-16T08:59:55;6.80;99.50
21861;DHT22;11095;48.066;8.540;2024-01-16T09:02:21;6.60;99.30
21861;DHT22;11095;48.066;8.540;2024-01-16T09:04:47;6.60;99.60
21861;DHT22;11095;48.066;8.540;2024-01-16T09:07:16;6.80;99.60
21861;DHT22;11095;48.066;8.540;2024-01-16T09:09:42;7.00;99.50
21861;DHT22;11095;48.066;8.540;2024-01-16T09:12:08;7.30;99.10
21861;DHT22;11095;48.066;8.540;2024-01-16T09:14:34;7.60;98.80
21861;DHT22;11095;48.066;8.540;2024-01-16T09:16:59;7.80;98.40
21861;DHT22;11095;48.066;8.540;2024-01-16T09:19:25;8.00;98.10
21861;DHT22;11095;48.066;8.540;2024-01-16T09:21:50;7.90;97.80
21861;DHT22;11095;48.066;8.540;2024-01-16T09:24:16;8.00;97.90
21861;DHT22;11095;48.066;8.540;2024-01-16T09:26:42;8.10;97.90
21861;DHT22;11095;48.066;8.540;2024-01-16T09:29:09;8.20;97.80
21861;DHT22;11095;48.066;8.540;2024-01-16T09:31:34;8.30;97.50
21861;DHT22;11095;48.066;8.540;2024-01-16T09:34:01;8.40;97.20
21861;DHT22;11095;48.066;8.540;2024-01-16T09:36:27;8.40;96.80
21861;DHT22;11095;48.066;8.540;2024-01-16T09:38:52;8.30;97.20
21861;DHT22;11095;48.066;8.540;2024-01-16T09:41:18;7.90;97.00
21861;DHT22;11095;48.066;8.540;2024-01-16T09:43:44;7.70;97.50
21861;DHT22;11095;48.066;8.540;2024-01-16T09:49:33;6.80;98.30
21861;DHT22;11095;48.066;8.540;2024-01-16T09:52:00;6.60;99.20
21861;DHT22;11095;48.066;8.540;2024-01-16T09:54:27;6.50;98.70
21861;DHT22;11095;48.066;8.540;2024-01-16T09:56:54;6.40;99.60
21861;DHT22;11095;48.066;8.540;2024-01-16T09:59:24;6.40;99.50
21861;DHT22;11095;48.066;8.540;2024-01-16T10:01:54;6.50;99.50
21861;DHT22;11095;48.066;8.540;2024-01-16T10:04:21;6.60;99.80
21861;DHT22;11095;48.066;8.540;2024-01-16T10:06:47;6.90;99.90
21861;DHT22;11095;48.066;8.540;2024-01-16T10:09:13;7.10;99.60
21861;DHT22;11095;48.066;8.540;2024-01-16T10:11:39;7.00;99.10
21861;DHT22;11095;48.066;8.540;2024-01-16T10:14:05;6.80;99.40
21861;DHT22;11095;48.066;8.540;2024-01-16T10:17:00;6.70;99.50
21861;DHT22;11095;48.066;8.540;2024-01-16T10:19:28;6.40;99.90
21861;DHT22;11095;48.066;8.540;2024-01-16T10:22:21;6.20;99.90
21861;DHT22;11095;48.066;8.540;2024-01-16T10:24:48;6.10;99.90
21861;DHT22;11095;48.066;8.540;2024-01-16T10:27:16;6.20;99.90
21861;DHT22;11095;48.066;8.540;2024-01-16T10:29:55;6.00;99.90
21861;DHT22;11095;48.066;8.540;2024-01-16T10:32:27;6.00;99.90
21861;DHT22;11095;48.066;8.540;2024-01-16T10:40:08;6.00;99.90
21861;DHT22;11095;48.066;8.540;2024-01-16T10:42:34;6.40;99.90
21861;DHT22;11095;48.066;8.540;2024-01-16T10:44:59;6.90;99.90
21861;DHT22;11095;48.066;8.540;2024-01-16T10:47:25;7.40;99.90
21861;DHT22;11095;48.066;8.540;2024-01-16T10:49:51;7.80;98.80
21861;DHT22;11095;48.066;8.540;2024-01-16T10:52:18;7.90;99.10
21861;DHT22;11095;48.066;8.540;2024-01-16T10:54:46;8.30;98.00
21861;DHT22;11095;48.066;8.540;2024-01-16T10:57:15;8.80;97.90
21861;DHT22;11095;48.066;8.540;2024-01-16T11:02:15;7.80;97.00
21861;DHT22;11095;48.066;8.540;2024-01-16T11:04:43;6.00;97.90
21861;DHT22;11095;48.066;8.540;2024-01-16T11:07:09;4.50;99.90
21861;DHT22;11095;48.066;8.540;2024-01-16T11:09:36;3.40;99.90
21861;DHT22;11095;48.066;8.540;2024-01-16T11:12:03;2.70;99.90
21861;DHT22;11095;48.066;8.540;2024-01-16T11:14:30;2.10;99.90
21861;DHT22;11095;48.066;8.540;2024-01-16T11:16:56;1.70;99.90
21861;DHT22;11095;48.066;8.540;2024-01-16T11:19:23;1.30;99.90
21861;DHT22;11095;48.066;8.540;2024-01-16T11:21:49;1.00;99.90
21861;DHT22;11095;48.066;8.540;2024-01-16T11:24:15;0.70;99.90
21861;DHT22;11095;48.066;8.540;2024-01-16T11:26:41;0.60;99.90
21861;DHT22;11095;48.066;8.540;2024-01-16T11:31:51;0.30;99.90
21861;DHT22;11095;48.066;8.540;2024-01-16T11:37:08;0.20;99.90
21861;DHT22;11095;48.066;8.540;2024-01-16T11:39:35;0.00;99.90
21861;DHT22;11095;48.066;8.540;2024-01-16T11:42:01;-0.10;99.90
21861;DHT22;11095;48.066;8.540;2024-01-16T11:44:48;-0.10;99.90
21861;DHT22;11095;48.066;8.540;2024-01-16T11:47:20;-0.20;99.90
21861;DHT22;11095;48.066;8.540;2024-01-16T11:49:46;-0.20;99.90
21861;DHT22;11095;48.066;8.540;2024-01-16T11:52:12;-0.20;99.90
21861;DHT22;11095;48.066;8.540;2024-01-16T11:54:42;-0.30;99.90
21861;DHT22;11095;48.066;8.540;2024-01-16T12:00:04;-0.40;99.90
21861;DHT22;11095;48.066;8.540;2024-01-16T12:02:53;-0.40;99.90
21861;DHT22;11095;48.066;8.540;2024-01-16T12:05:21;-0.40;99.90
21861;DHT22;11095;48.066;8.540;2024-01-16T12:07:51;-0.40;99.90
21861;DHT22;11095;48.066;8.540;2024-01-16T12:10:19;-0.40;99.90
21861;DHT22;11095;48.066;8.540;2024-01-16T12:12:46;-0.40;99.90
21861;DHT22;11095;48.066;8.540;2024-01-16T12:15:19;-0.40;99.90
21861;DHT22;11095;48.066;8.540;2024-01-16T12:18:17;-0.40;99.90
21861;DHT22;11095;48.066;8.540;2024-01-16T12:20:43;-0.30;99.90
21861;DHT22;11095;48.066;8.540;2024-01-16T12:23:09;-0.20;99.90
21861;DHT22;11095;48.066;8.540;2024-01-16T12:25:36;-0.20;99.90
21861;DHT22;11095;48.066;8.540;2024-01-16T12:28:04;-0.20;99.90
21861;DHT22;11095;48.066;8.540;2024-01-16T12:30:31;-0.20;99.90
21861;DHT22;11095;48.066;8.540;2024-01-16T12:33:13;-0.20;99.90
21861;DHT22;11095;48.066;8.540;2024-01-16T12:35:40;-0.20;99.90
21861;DHT22;11095;48.066;8.540;2024-01-16T12:38:07;-0.10;99.90
21861;DHT22;11095;48.066;8.540;2024-01-16T12:40:47;-0.10;99.90
21861;DHT22;11095;48.066;8.540;2024-01-16T12:43:16;-0.10;99.90
21861;DHT22;11095;48.066;8.540;2024-01-16T12:45:42;-0.20;99.90
21861;DHT22;11095;48.066;8.540;2024-01-16T12:48:09;-0.20;99.90
21861;DHT22;11095;48.066;8.540;2024-01-16T12:50:35;-0.30;99.90
21861;DHT22;11095;48.066;8.540;2024-01-16T12:53:05;-0.30;99.90
21861;DHT22;11095;48.066;8.540;2024-01-16T12:55:33;-0.30;99.90
21861;DHT22;11095;48.066;8.540;2024-01-16T12:58:21;-0.40;99.90
21861;DHT22;11095;48.066;8.540;2024-01-16T13:00:50;-0.30;99.90
21861;DHT22;11095;48.066;8.540;2024-01-16T13:05:43;-0.30;99.90
21861;DHT22;11095;48.066;8.540;2024-01-16T13:08:09;-0.20;99.90
21861;DHT22;11095;48.066;8.540;2024-01-16T13:10:34;-0.20;99.90
21861;DHT22;11095;48.066;8.540;2024-01-16T13:13:22;-0.20;99.90
21861;DHT22;11095;48.066;8.540;2024-01-16T13:15:48;-0.20;99.90
21861;DHT22;11095;48.066;8.540;2024-01-16T13:18:22;-0.20;99.90
21861;DHT22;11095;48.066;8.540;2024-01-16T13:20:49;-0.20;99.90
21861;DHT22;11095;48.066;8.540;2024-01-16T13:23:15;-0.20;99.90
21861;DHT22;11095;48.066;8.540;2024-01-16T13:25:45;-0.20;99.90
21861;DHT22;11095;48.066;8.540;2024-01-16T13:28:15;-0.20;99.90
21861;DHT22;11095;48.066;8.540;2024-01-16T13:30:41;-0.10;99.90
21861;DHT22;11095;48.066;8.540;2024-01-16T13:33:07;-0.10;99.90
21861;DHT22;11095;48.066;8.540;2024-01-16T13:35:44;-0.10;99.90
21861;DHT22;11095;48.066;8.540;2024-01-16T13:38:11;-0.10;99.90
21861;DHT22;11095;48.066;8.540;2024-01-16T13:40:37;-0.10;99.90
21861;DHT22;11095;48.066;8.540;2024-01-16T13:43:06;-0.10;99.90
21861;DHT22;11095;48.066;8.540;2024-01-16T13:45:35;-0.10;99.90
21861;DHT22;11095;48.066;8.540;2024-01-16T13:48:01;0.00;99.90
21861;DHT22;11095;48.066;8.540;2024-01-16T13:50:27;0.10;99.90
21861;DHT22;11095;48.066;8.540;2024-01-16T13:52:53;0.10;99.90
21861;DHT22;11095;48.066;8.540;2024-01-16T13:55:20;0.10;99.90
21861;DHT22;11095;48.066;8.540;2024-01-16T13:57:45;0.10;99.90
21861;DHT22;11095;48.066;8.540;2024-01-16T14:00:13;0.10;99.90
21861;DHT22;11095;48.066;8.540;2024-01-16T14:02:44;0.10;99.90
21861;DHT22;11095;48.066;8.540;2024-01-16T14:05:10;0.10;99.90
21861;DHT22;11095;48.066;8.540;2024-01-16T14:07:39;0.10;99.90
21861;DHT22;11095;48.066;8.540;2024-01-16T14:10:08;0.10;99.90
21861;DHT22;11095;48.066;8.540;2024-01-16T14:12:41;0.10;99.90
21861;DHT22;11095;48.066;8.540;2024-01-16T14:15:15;0.10;99.90
21861;DHT22;11095;48.066;8.540;2024-01-16T14:17:51;0.10;99.90
21861;DHT22;11095;48.066;8.540;2024-01-16T14:20:18;0.20;99.90
21861;DHT22;11095;48.066;8.540;2024-01-16T14:22:47;0.20;99.90
21861;DHT22;11095;48.066;8.540;2024-01-16T14:25:13;0.20;99.90
21861;DHT22;11095;48.066;8.540;2024-01-16T14:27:41;0.20;99.90
21861;DHT22;11095;48.066;8.540;2024-01-16T14:30:12;0.20;99.90
21861;DHT22;11095;48.066;8.540;2024-01-16T14:32:43;0.20;99.90
21861;DHT22;11095;48.066;8.540;2024-01-16T14:35:10;0.20;99.90
21861;DHT22;11095;48.066;8.540;2024-01-16T14:37:37;0.20;99.90
21861;DHT22;11095;48.066;8.540;2024-01-16T14:40:04;0.10;99.90
21861;DHT22;11095;48.066;8.540;2024-01-16T14:42:47;0.10;99.90
21861;DHT22;11095;48.066;8.540;2024-01-16T14:45:26;0.10;99.90
21861;DHT22;11095;48.066;8.540;2024-01-16T14:47:56;0.00;99.90
21861;DHT22;11095;48.066;8.540;2024-01-16T14:50:22;0.00;99.90
21861;DHT22;11095;48.066;8.540;2024-01-16T14:52:50;-0.10;99.90
21861;DHT22;11095;48.066;8.540;2024-01-16T14:55:16;-0.10;99.90
21861;DHT22;11095;48.066;8.540;2024-01-16T14:57:42;-0.20;99.90
21861;DHT22;11095;48.066;8.540;2024-01-16T15:00:10;-0.20;99.90
21861;DHT22;11095;48.066;8.540;2024-01-16T15:02:46;-0.30;99.90
21861;DHT22;11095;48.066;8.540;2024-01-16T15:05:16;-0.30;99.90
21861;DHT22;11095;48.066;8.540;2024-01-16T15:07:42;-0.40;99.90
21861;DHT22;11095;48.066;8.540;2024-01-16T15:10:10;-0.40;99.90
21861;DHT22;11095;48.066;8.540;2024-01-16T15:12:46;-0.50;99.90
21861;DHT22;11095;48.066;8.540;2024-01-16T15:15:14;-0.60;99.90
21861;DHT22;11095;48.066;8.540;2024-01-16T15:17:41;-0.60;99.90
21861;DHT22;11095;48.066;8.540;2024-01-16T15:20:08;-0.70;99.90
21861;DHT22;11095;48.066;8.540;2024-01-16T15:22:41;-0.80;99.90
21861;DHT22;11095;48.066;8.540;2024-01-16T15:25:10;-0.90;99.90
21861;DHT22;11095;48.066;8.540;2024-01-16T15:27:35;-1.00;99.90
21861;DHT22;11095;48.066;8.540;2024-01-16T15:30:02;-1.10;99.90
21861;DHT22;11095;48.066;8.540;2024-01-16T15:32:30;-1.30;99.90
21861;DHT22;11095;48.066;8.540;2024-01-16T15:34:57;-1.40;99.90
21861;DHT22;11095;48.066;8.540;2024-01-16T15:37:23;-1.50;99.90
21861;DHT22;11095;48.066;8.540;2024-01-16T15:39:48;-1.60;99.90
21861;DHT22;11095;48.066;8.540;2024-01-16T15:42:14;-1.70;99.90
21861;DHT22;11095;48.066;8.540;2024-01-16T15:44:40;-1.90;99.90
21861;DHT22;11095;48.066;8.540;2024-01-16T15:47:05;-2.00;99.90
21861;DHT22;11095;48.066;8.540;2024-01-16T15:49:32;-2.10;99.90
21861;DHT22;11095;48.066;8.540;2024-01-16T15:51:58;-2.20;99.90
21861;DHT22;11095;48.066;8.540;2024-01-16T15:54:27;-2.30;99.90
21861;DHT22;11095;48.066;8.540;2024-01-16T15:56:56;-2.40;99.90